Millardsville, Pennsylvania
Current Conditions -  °F | °C
As of 5:04 PM on Thursday 27 Nov 2014 (Local Time) from KMUI Reporting Station
Overcast Overcast  
Wind Chill: -1°   Ceiling: 6000
Heat Index:   Visibility: 10mi
Dew Point: -2°   Wind: 6mph
Humidity: 75%   Direction: 270°W
Pressure: 30.07"   Gusts: NA
Location:  40.3869°N, 76.3173°W
Report Text: KMUI 272204Z AUTO 27005KT 10SM SCT041 OVC060 02/M02 A3007 RMK AO2 UPE2204 $
Loading
Personal Weather Stations






























Interactive Weather Map New forecast layout! Learn more

10-Day Weather Forecast

Advertisements
Track Severe Weather on mobile